Nearby METAR Reports

 

KHFD - Hartford/Brainar, Connecticut, USA
Distance from station: NW 13mi, 20km
Updated: Tue, 18-Sep-2018 4:00pm EDT
Overcast
Overcast
 Wind from NNE
Wind: NNE 6 mph , 9 km/h
Temperature: 73°F , 23°C
Dew Point: 70°F , 21°C
Humidity: 89%
Barometer: 29.75 inHg , 1007.5 hPa
Clouds: Overcast
Visibility: 10 miles , 16 km
Cloud details: Overcast 7500 ft
2018/09/18 20:00 KHFD 182000Z 02005KT 10SM OVC075 23/21 A2975 RMK AO2 T02330206
KSNC - Chester, Connecticut, USA
Distance from station: S 15mi, 23km
Updated: Tue, 18-Sep-2018 4:15pm EDT
Rain, Overcast
Rain, Overcast
 Wind from varies
Wind: varies 6 mph , 9 km/h, Gust: 13 mph , 20 km/h
Temperature: 70°F , 21°C
Dew Point: 70°F , 21°C
Humidity: 100%
Barometer: 29.76 inHg , 1007.8 hPa
Summary: Rain
Clouds: Overcast
Visibility: 2 1/2 miles , 2 km
Cloud details: Mostly cloudy 400 ft
Overcast 1500 ft
2018/09/18 20:15 KSNC 182015Z AUTO VRB05G11KT 2 1/2SM RA BKN004 OVC015 21/21 A2976 RMK AO2
 
KMMK - Meriden, Connecticut, USA
Distance from station: WSW 18mi, 30km
Updated: Tue, 18-Sep-2018 3:53pm EDT
Overcast
Overcast
 Wind from N
Wind: N 7 mph , 11 km/h
Temperature: 73°F , 23°C
Dew Point: 70°F , 21°C
Humidity: 89%
Barometer: 29.75 inHg , 1007.5 hPa
Clouds: Overcast
Visibility: 10 miles , 16 km
Cloud details: Partly cloudy 1900 ft
Partly cloudy 4600 ft
Overcast 6000 ft
2018/09/18 19:53 KMMK 181953Z AUTO 01006KT 10SM SCT019 SCT046 OVC060 23/21 A2975 RMK AO2 RAB1854E25B37E52 SLP073 P0002 T02280206
KIJD - Willimantic, Connecticut, USA
Distance from station: NE 19mi, 31km
Updated: Tue, 18-Sep-2018 3:52pm EDT
Overcast
Overcast
 Wind from N
Wind: N 7 mph , 11 km/h
Temperature: 72°F , 22°C
Dew Point: 72°F , 22°C
Humidity: 100%
Barometer: 29.77 inHg , 1008.1 hPa
Clouds: Overcast
Visibility: 10 miles , 16 km
Cloud details: Few Clouds 1000 ft
Overcast 1800 ft
2018/09/18 19:52 KIJD 181952Z AUTO 36006KT 10SM FEW010 OVC018 22/22 A2977 RMK AO2 RAE08 SLP077 P0001 T02220222
 
KBDL - Windsor Locks, Connecticut, USA
Distance from station: NNW 25mi, 41km
Updated: Tue, 18-Sep-2018 3:51pm EDT
Mostly cloudy
Mostly cloudy
 Wind from NNE
Wind: NNE 7 mph , 11 km/h
Temperature: 77°F , 25°C
Dew Point: 70°F , 21°C
Humidity: 79%
Barometer: 29.76 inHg , 1007.8 hPa
Clouds: Mostly cloudy
Visibility: 10 miles , 16 km
Cloud details: Few Clouds 1400 ft
Few Clouds 2900 ft
Mostly cloudy 10000 ft
Mostly cloudy 25000 ft
2018/09/18 19:51 KBDL 181951Z 03006KT 10SM FEW014 FEW029 BKN100 BKN250 25/21 A2976 RMK AO2 SLP076 T02500206
KGON - Groton/New Londo, Connecticut, USA
Distance from station: SE 29mi, 47km
Updated: Tue, 18-Sep-2018 3:56pm EDT
Rain, Mist, Overcast
Rain, Mist, Overcast
 Wind from N
Wind: N 5 mph , 7 km/h
Temperature: 73°F , 23°C
Dew Point: 72°F , 22°C
Humidity: 94%
Barometer: 29.73 inHg , 1006.8 hPa
Summary: Rain, Mist
Clouds: Overcast
Visibility: 3 miles , 5 km
Cloud details: Mostly cloudy 800 ft
Mostly cloudy 4400 ft
Overcast 11000 ft
2018/09/18 19:56 KGON 181956Z 35004KT 3SM RA BR BKN008 BKN044 OVC110 23/22 A2973 RMK AO2 LTG DSNT E AND S TSE02 SLP066 P0012 T02280222 $
 
KHVN - New Haven/Tweed, Connecticut, USA
Distance from station: SW 30mi, 48km
Updated: Tue, 18-Sep-2018 3:53pm EDT
Heavy rain, Mist, Overcast
Heavy rain, Mist, Overcast
 Wind from N
Wind: N 10 mph , 17 km/h
Temperature: 72°F , 22°C
Dew Point: 70°F , 21°C
Humidity: 94%
Barometer: 29.75 inHg , 1007.5 hPa
Summary: Heavy rain, Mist
Clouds: Overcast
Visibility: 1 1/2 miles , 2 km
Cloud details: Mostly cloudy 1000 ft
Overcast 3900 ft
2018/09/18 19:53 KHVN 181953Z 36009KT 1 1/2SM R02/4000VP6000FT +RA BR BKN010 OVC039 22/21 A2975 RMK AO2 SLP073 P0023 T02220211
KOXC - Oxford/Waterbury, Connecticut, USA
Distance from station: WSW 34mi, 55km
Updated: Tue, 18-Sep-2018 3:58pm EDT
Overcast
Overcast
 Wind from NNE
Wind: NNE 9 mph , 15 km/h
Temperature: 72°F , 22°C
Dew Point: 70°F , 21°C
Humidity: 94%
Barometer: 29.78 inHg , 1008.5 hPa
Clouds: Overcast
Visibility: 9 miles , 14 km
Cloud details: Few Clouds 1100 ft
Mostly cloudy 1900 ft
Overcast 5000 ft
2018/09/18 19:58 KOXC 181958Z 02008KT 9SM FEW011 BKN019 OVC050 22/21 A2978 RMK AO2
 
KWST - Westerly, Rhode Island, USA
Distance from station: ESE 40mi, 64km
Updated: Tue, 18-Sep-2018 4:04pm EDT
Rain, Mist, Overcast
Rain, Mist, Overcast
 Wind from calm
Wind: Calm
Temperature: 75°F , 24°C
Dew Point: 75°F , 24°C
Humidity: 100%
Barometer: 29.74 inHg , 1007.1 hPa
Summary: Rain, Mist
Clouds: Overcast
Visibility: 1 3/4 miles , 5 km
Cloud details: Partly cloudy 400 ft
Mostly cloudy 5500 ft
Overcast 10000 ft
2018/09/18 20:04 KWST 182004Z AUTO 00000KT 1 3/4SM RA BR SCT004 BKN055 OVC100 24/24 A2974 RMK AO2 LTG DSNT E-SW TSE1950 P0006 T02390239
KBAF - Westfield, Massachusetts, USA
Distance from station: NNW 41mi, 66km
Updated: Tue, 18-Sep-2018 3:53pm EDT
Mostly cloudy
Mostly cloudy
 Wind from calm
Wind: Calm
Temperature: 75°F , 24°C
Dew Point: 70°F , 21°C
Humidity: 83%
Barometer: 29.76 inHg , 1007.8 hPa
Clouds: Mostly cloudy
Visibility: 10 miles , 16 km
Cloud details: Mostly cloudy 4300 ft
2018/09/18 19:53 KBAF 181953Z 00000KT 10SM BKN043 24/21 A2976 RMK AO2 SLP074 T02440206
 
KCEF - Chicopee/Westove, Massachusetts, USA
Distance from station: N 42mi, 67km
Updated: Tue, 18-Sep-2018 2:56pm EDT
NOT Current
Mostly cloudy
Mostly cloudy
 Wind from NNE
Wind: NNE 6 mph , 9 km/h
Temperature: 75°F , 24°C
Dew Point: 68°F , 20°C
Humidity: 78%
Barometer: 29.74 inHg , 1007.1 hPa
Clouds: Mostly cloudy
Visibility: 10 miles , 16 km
Cloud details: Partly cloudy 1300 ft
Mostly cloudy 10000 ft
Mostly cloudy 18000 ft
2018/09/18 18:56 KCEF 181856Z 03005KT 10SM SCT013 BKN100 BKN180 24/20 A2974 RMK AO2A SLP075 P0000 T02370200
KBDR - Bridgeport, Connecticut, USA
Distance from station: SW 44mi, 72km
Updated: Tue, 18-Sep-2018 3:52pm EDT
Light rain, Mist, Overcast
Light rain, Mist, Overcast
 Wind from N
Wind: N 8 mph , 13 km/h
Temperature: 73°F , 23°C
Dew Point: 72°F , 22°C
Humidity: 94%
Barometer: 29.74 inHg , 1007.1 hPa
Summary: Light rain, Mist
Clouds: Overcast
Visibility: 4 miles , 6 km
Cloud details: Few Clouds 1200 ft
Mostly cloudy 7000 ft
Overcast 10000 ft
2018/09/18 19:52 KBDR 181952Z 01007KT 4SM -RA BR FEW012 BKN070 OVC100 23/22 A2974 RMK AO2 SLP069 P0017 T02280217
 
KHTO - East Hampton, New York, USA
Distance from station: SSE 46mi, 74km
Updated: Tue, 18-Sep-2018 3:55pm EDT
Heavy thunderstorm, Rain, Overcast
Heavy thunderstorm, Rain, Overcast
 Wind from calm
Wind: Calm
Temperature: 72°F , 22°C
Dew Point: 72°F , 22°C
Humidity: 100%
Barometer: 29.73 inHg , 1006.8 hPa
Summary: Heavy thunderstorm, Rain
Clouds: Overcast
Visibility: 1 1/4 miles , 2 km
Cloud details: Mostly cloudy 400 ft
Mostly cloudy 1300 ft
Overcast 2000 ft
2018/09/18 19:55 KHTO 181955Z AUTO 00000KT 1 1/4SM +TSRA BKN004 BKN013 OVC020 22/22 A2973 RMK AO2 LTG DSNT NE THRU SE P0077 T02230218
KMTP - Montauk, New York, USA
Distance from station: SE 47mi, 76km
Updated: Tue, 18-Sep-2018 3:54pm EDT

 Wind from W
Wind: W 6 mph , 9 km/h
Temperature: 73°F , 23°C
Dew Point: 73°F , 23°C
Humidity: 100%
Barometer: 29.76 inHg , 1007.8 hPa
2018/09/18 19:54 KMTP 181954Z AUTO 26005KT 23/23 A2976 RMK AO1 SLP076 P0006 T02330233